Latest Weather Observations for Tasman Island

IDT60901

Issued at 4:15 pm EST Thursday 2 October 2014 (issued every 10 minutes, with the page automatically refreshed every 10 minutes)

About weather observations | Map of Hobart area stations | Latest observations for Hobart area | Other Formats
Station Details ID: 094155 Name: TASMAN ISLAND Lat: -43.24 Lon: 148.00 Height: 240.0 m
Data from the previous 72 hours. | See also: Recent months at Tasman Island
Date/Time
EST
Tmp

°C
App
Tmp
°C
Dew
Point
°C
Rel
Hum
%
Delta-T

°C
Wind Press
QNH
hPa
Press
MSL
hPa
Rain
since
9 am
mm
Dir
 
Spd
km/h
Gust
km/h
Spd
kts
Gust
kts
02/04:00pm 8.6 -2.7 3.2 69 2.3 SW 52 83 28 45 1012.8 1013.0 0.0
02/03:30pm 8.5 -3.2 3.1 69 2.3 SW 54 82 29 44 1012.6 1012.8 0.0
02/03:00pm 8.7 0.8 4.5 75 1.9 SW 35 67 19 36 1012.5 1012.7 0.0
02/02:46pm 8.2 0.3 4.4 77 1.7 SW 35 80 19 43 1012.1 1012.3 0.0
02/02:30pm 8.8 2.3 4.6 75 1.9 SW 28 57 15 31 1012.2 1012.4 0.0
02/02:00pm 9.9 -0.5 4.3 68 2.5 SW 48 78 26 42 1011.9 1012.0 0.0
02/01:30pm 9.7 -1.8 4.5 70 2.3 SW 54 95 29 51 1011.5 1011.6 0.0
02/01:20pm 9.4 -5.1 3.4 66 2.6 SW 69 89 37 48 1010.9 1011.0 0.0
02/01:00pm 9.1 -0.5 4.3 72 2.1 SW 44 91 24 49 1010.9 1011.0 0.0
02/12:30pm 9.7 1.7 5.9 77 1.8 SW 37 87 20 47 1010.8 1010.9 0.0
02/12:00pm 9.5 1.4 6.8 83 1.3 SW 39 89 21 48 1010.6 1010.7 0.0
02/11:30am 8.9 2.1 7.7 92 0.6 SW 33 85 18 46 1010.5 1010.6 0.0
02/11:00am 9.3 1.8 7.9 91 0.7 WSW 37 78 20 42 1010.4 1010.5 0.0
02/10:30am 10.9 3.1 6.8 76 2.0 WSW 37 70 20 38 1010.4 1010.5 0.0
02/10:00am 11.2 3.4 6.7 74 2.2 WSW 37 76 20 41 1010.3 1010.4 0.0
02/09:30am 11.0 4.3 7.3 78 1.8 WSW 32 67 17 36 1009.6 1009.8 0.0
02/09:20am 10.9 5.2 8.3 84 1.3 WSW 28 56 15 30 1010.1 1010.2 0.0
02/09:00am 10.9 5.8 7.8 81 1.5 W 24 54 13 29 1010.3 1010.4 0.4
02/08:30am 10.6 6.8 7.5 81 1.5 W 17 39 9 21 1010.2 1010.3 0.4
02/08:00am 10.4 6.5 7.3 81 1.5 W 17 43 9 23 1010.2 1010.3 0.4
02/07:30am 10.4 6.4 6.5 77 1.9 WSW 17 46 9 25 1009.3 1009.5 0.4
02/07:00am 10.4 7.5 6.4 76 1.9 WNW 11 37 6 20 1009.4 1009.6 0.4
02/06:30am 10.0 5.6 7.4 84 1.3 WSW 20 61 11 33 1009.4 1009.6 0.4
02/06:00am 10.4 7.6 6.9 79 1.7 WSW 11 48 6 26 1009.3 1009.5 0.4
02/05:30am 10.5 7.2 6.5 76 1.9 NNW 13 37 7 20 1008.9 1009.1 0.4
02/05:00am 10.5 7.5 6.1 74 2.1 W 11 32 6 17 1008.6 1008.8 0.4
02/04:30am 10.5 7.6 6.3 75 2.0 W 11 44 6 24 1008.5 1008.7 0.4
02/04:00am 10.9 7.6 6.5 74 2.1 WNW 13 43 7 23 1008.5 1008.7 0.4
02/03:30am 10.7 6.9 5.9 72 2.3 NW 15 44 8 24 1008.3 1008.4 0.4
02/03:00am 10.8 7.1 6.2 73 2.2 NW 15 43 8 23 1008.1 1008.2 0.4
02/02:30am 10.9 7.5 5.9 71 2.4 NW 13 44 7 24 1008.2 1008.3 0.4
02/02:00am 11.1 7.3 5.8 70 2.5 W 15 44 8 24 1008.2 1008.3 0.4
02/01:30am 11.1 7.6 5.6 69 2.6 W 13 41 7 22 1008.4 1008.5 0.4
02/01:00am 11.0 6.8 5.7 70 2.5 WSW 17 48 9 26 1008.6 1008.8 0.4
02/12:30am 10.9 7.3 5.2 68 2.6 W 13 33 7 18 1009.3 1009.5 0.4
02/12:00am 11.1 7.6 5.4 68 2.7 WSW 13 37 7 20 1009.6 1009.8 0.4
 
Date/Time
EST
Tmp

°C
App
Tmp
°C
Dew
Point
°C
Rel
Hum
%
Delta-T

°C
Wind Press
QNH
hPa
Press
MSL
hPa
Rain
since
9 am
mm
Dir
 
Spd
km/h
Gust
km/h
Spd
kts
Gust
kts
01/11:30pm 10.9 5.9 6.3 73 2.2 W 22 52 12 28 1010.3 1010.4 0.4
01/11:02pm 10.3 3.0 5.5 72 2.2 WNW 33 52 18 28 1010.3 1010.4 0.4
01/11:00pm 10.3 3.2 5.5 72 2.2 WNW 32 48 17 26 1010.3 1010.4 0.4
01/10:30pm 9.9 6.7 5.3 73 2.1 WNW 11 30 6 16 1010.6 1010.7 0.4
01/10:02pm 10.0 2.2 5.0 71 2.3 WNW 35 54 19 29 1010.9 1011.0 0.4
01/10:00pm 9.9 1.7 4.9 71 2.3 NW 37 54 20 29 1010.8 1010.9 0.4
01/09:37pm 9.8 3.3 4.8 71 2.3 WNW 28 46 15 25 1011.1 1011.2 0.4
01/09:30pm 9.9 3.1 4.9 71 2.3 WNW 30 46 16 25 1011.1 1011.2 0.4
01/09:00pm 9.5 2.1 4.1 69 2.4 WNW 32 48 17 26 1011.3 1011.4 0.4
01/08:30pm 9.4 1.7 3.6 67 2.6 NW 33 48 18 26 1011.9 1012.0 0.4
01/08:00pm 9.5 2.8 3.9 68 2.5 NW 28 48 15 26 1012.3 1012.5 0.4
01/07:56pm 9.4 2.7 3.6 67 2.6 WNW 28 48 15 26 1012.3 1012.5 0.4
01/07:30pm 9.3 4.1 3.7 68 2.5 WNW 20 43 11 23 1012.5 1012.7 0.4
01/07:00pm 9.1 4.8 3.3 67 2.5 W 15 35 8 19 1012.8 1013.0 0.4
01/06:30pm 9.5 6.4 3.5 66 2.6 W 9 32 5 17 1013.1 1013.3 0.4
01/06:00pm 9.6 6.4 3.1 64 2.8 SSE 9 33 5 18 1013.2 1013.4 0.4
01/05:30pm 9.8 5.8 2.9 62 3.0 NNW 13 33 7 18 1012.8 1013.0 0.4
01/05:00pm 10.1 6.2 3.2 62 3.0 NNW 13 46 7 25 1012.9 1013.1 0.4
01/04:30pm 10.2 6.6 2.8 60 3.2 NNW 11 37 6 20 1012.7 1012.9 0.4
01/04:00pm 10.3 6.1 1.9 56 3.6 WNW 13 33 7 18 1012.5 1012.7 0.4
01/03:30pm 10.0 5.7 3.1 62 3.0 WNW 15 41 8 22 1012.4 1012.6 0.4
01/03:00pm 9.5 5.8 4.7 72 2.2 W 13 48 7 26 1012.4 1012.6 0.4
01/02:30pm 9.6 5.6 4.8 72 2.2 WSW 15 37 8 20 1012.7 1012.9 0.4
01/02:00pm 9.0 4.3 3.2 67 2.5 W 17 41 9 22 1012.7 1012.9 0.4
01/01:30pm 9.7 5.9 3.9 67 2.6 WSW 13 44 7 24 1012.7 1012.9 0.4
01/01:00pm 9.1 3.1 3.5 68 2.5 WSW 24 59 13 32 1012.4 1012.6 0.4
01/12:30pm 9.3 4.6 2.9 64 2.8 SSW 17 32 9 17 1012.5 1012.7 0.4
01/12:00pm 8.7 2.9 4.3 74 2.0 WSW 24 61 13 33 1012.6 1012.8 0.4
01/11:49am 8.4 1.8 4.2 75 1.9 WSW 28 59 15 32 1012.3 1012.5 0.4
01/11:30am 8.1 4.3 5.7 85 1.1 W 15 44 8 24 1012.7 1012.9 0.4
01/11:00am 7.4 0.6 2.9 73 1.9 SW 28 59 15 32 1012.1 1012.3 0.0
01/10:30am 8.1 3.9 3.8 74 1.9 NNW 15 52 8 28 1012.1 1012.3 0.0
01/10:00am 7.8 3.4 2.9 71 2.1 SW 15 43 8 23 1012.0 1012.2 0.0
01/09:30am 8.1 3.2 4.1 76 1.8 W 19 46 10 25 1011.8 1012.0 0.0
01/09:00am 6.6 0.5 2.9 77 1.6 WSW 24 61 13 33 1011.6 1011.8 18.2
01/08:30am 6.8 2.6 3.8 81 1.3 N 15 33 8 18 1010.8 1011.0 18.2
01/08:25am 7.1 0.3 3.2 76 1.7 SW 28 78 15 42 1010.5 1010.7 18.2
01/08:00am 6.1 -1.5 2.6 78 1.5 WSW 32 57 17 31 1010.7 1010.9 18.2
01/07:35am 7.8 0.9 2.5 69 2.2 SW 28 69 15 37 1009.7 1010.0 18.0
01/07:30am 7.2 1.1 2.7 73 1.9 SW 24 54 13 29 1009.8 1010.1 18.0
01/07:00am 5.4 -4.5 2.6 82 1.2 SW 44 76 24 41 1009.3 1009.6 18.0
01/06:30am 7.0 -1.5 2.9 75 1.7 SW 37 65 20 35 1008.6 1008.8 17.0
01/06:11am 5.9 -1.1 2.2 77 1.5 SW 28 48 15 26 1008.3 1008.5 17.0
01/06:08am 5.8 -1.6 2.1 77 1.5 SW 30 44 16 24 1008.1 1008.3 17.0
01/06:00am 5.8 -6.4 2.6 80 1.3 SW 56 96 30 52 1007.4 1007.6 17.0
01/05:30am 5.8 -4.9 2.8 81 1.3 SSW 48 80 26 43 1006.9 1007.1 16.8
01/05:15am 6.8 -4.3 2.7 75 1.7 SSW 50 82 27 44 1006.4 1006.6 16.6
01/05:11am 6.7 -2.3 4.5 86 1.0 SSW 41 61 22 33 1006.4 1006.6 16.6
01/05:00am 6.2 -6.2 4.8 91 0.6 SW 59 93 32 50 1006.1 1006.3 16.6
01/04:39am 4.4 -7.9 1.8 83 1.0 SW 56 80 30 43 1005.9 1006.1 16.2
01/04:30am 5.5 -2.0 3.5 87 0.8 SW 32 70 17 38 1005.5 1005.8 16.0
01/04:27am 4.4 -2.6 2.1 85 0.9 SW 28 70 15 38 1005.6 1005.9 15.8
01/04:00am 4.9 0.1 2.6 85 1.0 SW 17 41 9 22 1005.1 1005.3 14.8
01/03:48am 5.5 -1.2 3.5 87 0.8 WSW 28 61 15 33 1004.5 1004.7 14.8
01/03:30am 5.0 1.0 2.9 86 0.9 NE 13 44 7 24 1004.5 1004.7 14.8
01/03:00am 5.5 0.1 2.5 81 1.2 NW 20 50 11 27 1004.2 1004.4 14.0
01/02:30am 5.7 0.9 2.4 79 1.4 SW 17 39 9 21 1003.8 1004.0 14.0
01/02:00am 6.1 1.2 2.2 76 1.6 NW 17 44 9 24 1003.4 1003.6 14.0
01/01:30am 5.9 2.2 2.2 77 1.5 NNE 11 39 6 21 1003.3 1003.5 14.0
01/01:00am 5.8 2.2 3.0 82 1.2 W 11 44 6 24 1002.7 1002.9 14.0
01/12:30am 5.3 1.3 2.7 83 1.1 N 13 39 7 21 1002.4 1002.6 14.0
01/12:00am 5.2 0.0 2.2 81 1.2 W 19 43 10 23 1001.9 1002.1 14.0
 
Date/Time
EST
Tmp

°C
App
Tmp
°C
Dew
Point
°C
Rel
Hum
%
Delta-T

°C
Wind Press
QNH
hPa
Press
MSL
hPa
Rain
since
9 am
mm
Dir
 
Spd
km/h
Gust
km/h
Spd
kts
Gust
kts
30/11:42pm 6.4 -1.8 2.9 78 1.5 WSW 35 63 19 34 1001.0 1001.2 14.0
30/11:30pm 6.3 1.1 2.6 77 1.5 N 19 35 10 19 1000.7 1000.9 14.0
30/11:00pm 5.6 1.3 3.3 85 1.0 WNW 15 43 8 23 1000.3 1000.5 14.0
30/10:42pm 5.7 0.2 4.0 89 0.7 W 22 57 12 31 999.9 1000.1 13.8
30/10:30pm 5.5 -3.7 3.7 88 0.8 SW 41 85 22 46 999.6 999.8 13.8
30/10:24pm 5.5 -4.8 2.7 82 1.2 SW 46 85 25 46 999.8 1000.0 13.2
30/10:00pm 6.8 3.3 3.4 79 1.5 ESE 11 33 6 18 999.3 999.5 12.6
30/09:30pm 6.6 2.3 3.4 80 1.4 NNW 15 39 8 21 999.0 999.2 12.6
30/09:04pm 6.8 0.1 3.4 79 1.5 WSW 28 57 15 31 998.7 998.9 12.6
30/09:00pm 6.7 2.8 3.3 79 1.5 S 13 39 7 21 998.6 998.8 12.6
30/08:30pm 6.8 2.5 3.4 79 1.5 NW 15 54 8 29 998.2 998.3 12.6
30/08:00pm 6.8 3.3 5.3 90 0.7 N 13 43 7 23 997.5 997.6 12.6
30/07:30pm 6.4 1.0 6.3 99 0.0 W 24 48 13 26 996.8 997.0 12.6
30/07:00pm 6.2 0.0 6.1 99 0.0 SW 28 70 15 38 996.0 996.2 12.4
30/06:35pm 6.8 0.7 6.7 99 0.0 SW 28 69 15 37 995.2 995.4 12.0
30/06:30pm 7.3 2.1 7.2 99 0.0 SSW 24 69 13 37 995.2 995.4 12.0
30/06:00pm 8.3 5.4 8.2 99 0.0 W 13 33 7 18 995.3 995.5 10.0
30/05:30pm 7.9 4.9 7.8 99 0.0 SW 13 24 7 13 994.8 994.9 10.0
30/05:00pm 7.8 4.4 7.8 100 0.0 SSW 15 26 8 14 994.0 994.1 10.0
30/04:30pm 7.5 3.1 7.5 100 0.0 SSW 20 35 11 19 993.6 993.7 10.0
30/04:00pm 7.5 4.1 7.5 100 0.0 SSW 15 24 8 13 993.4 993.5 10.0
30/03:30pm 7.4 3.0 7.4 100 0.0 SSW 20 30 11 16 993.3 993.4 10.0
30/03:00pm 7.4 2.6 7.3 99 0.0 SW 22 37 12 20 993.9 994.0 8.6
30/02:30pm 7.3 0.4 7.2 99 0.0 SW 33 57 18 31 994.0 994.1 6.4
30/02:08pm 7.4 0.5 7.3 99 0.0 SSW 33 52 18 28 993.8 993.9 3.2
30/02:06pm 7.5 -0.5 7.4 99 0.0 SSW 39 52 21 28 993.5 993.6 3.2
30/02:00pm 8.4 4.8 8.3 99 0.0 S 17 26 9 14 993.6 993.7 2.8
30/01:30pm 9.2 4.5 9.1 99 0.0 S 24 33 13 18 993.6 993.7 1.2
30/01:00pm 9.3 5.9 9.2 99 0.1 SSW 17 28 9 15 994.1 994.2 1.2
30/12:30pm 9.1 4.7 8.8 98 0.1 SSW 22 33 12 18 994.5 994.6 1.2
30/12:01pm 9.2 3.1 8.1 93 0.5 SSW 30 48 16 26 994.8 994.9 0.4
30/12:00pm 9.2 2.7 8.1 93 0.5 SSW 32 48 17 26 994.8 994.9 0.4
30/11:46am 10.3 4.0 5.7 73 2.1 S 28 48 15 26 994.5 994.6 0.0
30/11:30am 14.6 9.2 6.4 58 4.0 NW 24 39 13 21 994.4 994.5 0.0
30/11:00am 13.0 7.2 7.9 71 2.6 N 28 44 15 24 994.9 995.1 0.0
30/10:30am 13.3 7.4 7.3 67 3.0 N 28 48 15 26 995.3 995.5 0.0
30/10:19am 13.4 7.5 7.6 68 2.9 N 28 46 15 25 995.5 995.7 0.0
30/10:00am 13.0 7.5 7.5 69 2.7 N 26 39 14 21 996.0 996.2 0.0
30/09:33am 13.4 7.0 7.0 65 3.1 N 30 48 16 26 996.6 996.8 0.0
30/09:30am 13.9 7.1 7.0 63 3.4 N 32 48 17 26 996.5 996.7 0.0
30/09:10am 13.9 7.4 6.3 60 3.7 NNE 30 48 16 26 996.8 997.0 0.0
30/09:00am 13.8 8.0 6.2 60 3.7 NNE 26 41 14 22 996.8 997.0 0.0
30/08:30am 13.0 6.6 5.2 59 3.7 N 28 37 15 20 997.6 997.7 0.0
30/08:00am 12.5 5.7 5.0 60 3.5 NNW 30 48 16 26 997.7 997.8 0.0
30/07:30am 12.3 5.1 5.0 61 3.4 NNW 32 54 17 29 997.7 997.8 0.0
30/07:06am 11.9 4.3 6.0 67 2.8 NNW 35 61 19 33 997.7 997.8 0.0
30/07:00am 11.7 8.0 6.2 69 2.6 N 15 28 8 15 997.6 997.7 0.0
30/06:47am 11.4 5.2 6.3 71 2.4 NNW 28 56 15 30 998.0 998.1 0.0
30/06:30am 11.3 5.5 6.2 71 2.4 NW 26 44 14 24 998.4 998.6 0.0
30/06:00am 11.5 5.3 6.0 69 2.6 N 28 56 15 30 998.4 998.6 0.0
30/05:43am 11.6 4.5 5.5 66 2.9 N 32 54 17 29 998.7 998.9 0.0
30/05:30am 11.8 8.9 4.5 61 3.4 N 9 35 5 19 998.9 999.1 0.0
30/05:00am 11.7 6.6 5.8 67 2.8 N 22 37 12 20 998.9 999.1 0.0
30/04:32am 11.6 5.2 5.0 64 3.1 NNW 28 46 15 25 999.2 999.4 0.0
30/04:30am 11.3 5.3 5.2 66 2.8 N 26 43 14 23 999.2 999.4 0.0
30/04:00am 11.7 7.0 5.1 64 3.1 NW 19 30 10 16 999.7 999.9 0.0
30/03:30am 12.4 5.4 3.9 56 3.9 NW 30 54 16 29 1000.0 1000.2 0.0
30/03:08am 12.2 5.2 4.2 58 3.7 NW 30 52 16 28 1000.3 1000.5 0.0
30/03:00am 12.2 6.0 4.2 58 3.7 NW 26 37 14 20 1000.4 1000.6 0.0
30/02:30am 12.3 5.0 4.3 58 3.7 NW 32 61 17 33 1000.7 1000.9 0.0
30/02:00am 12.0 4.6 4.2 59 3.6 NNW 32 50 17 27 1001.1 1001.3 0.0
30/01:45am 11.9 4.6 4.4 60 3.4 NNW 32 52 17 28 1001.2 1001.4 0.0
30/01:30am 11.9 4.4 4.6 61 3.4 NNW 33 48 18 26 1001.5 1001.6 0.0
30/01:00am 12.0 3.0 4.5 60 3.5 NW 41 54 22 29 1001.6 1001.7 0.0
30/12:30am 11.3 4.3 4.1 61 3.3 NNW 30 41 16 22 1002.1 1002.3 0.0
30/12:00am 11.2 5.7 4.0 61 3.3 NNW 22 33 12 18 1002.5 1002.7 0.0
 
Date/Time
EST
Tmp

°C
App
Tmp
°C
Dew
Point
°C
Rel
Hum
%
Delta-T

°C
Wind Press
QNH
hPa
Press
MSL
hPa
Rain
since
9 am
mm
Dir
 
Spd
km/h
Gust
km/h
Spd
kts
Gust
kts
29/11:30pm 11.4 5.5 3.7 59 3.5 NNW 24 39 13 21 1002.5 1002.7 0.0
29/11:02pm 11.8 3.3 3.3 56 3.8 NW 37 56 20 30 1002.6 1002.8 0.0
29/11:00pm 11.9 3.0 3.2 55 3.9 NW 39 56 21 30 1002.6 1002.8 0.0
29/10:30pm 11.9 2.6 2.9 54 4.0 NW 41 67 22 36 1002.4 1002.6 0.0
29/10:00pm 12.0 1.7 2.7 53 4.1 NW 46 65 25 35 1002.9 1003.1 0.0
29/09:32pm 11.7 4.7 2.2 52 4.1 NNW 28 48 15 26 1003.2 1003.4 0.0
29/09:30pm 11.8 4.1 2.3 52 4.2 NNW 32 48 17 26 1003.1 1003.3 0.0
29/09:04pm 12.1 3.0 1.7 49 4.5 NW 39 61 21 33 1002.9 1003.1 0.0
29/09:00pm 12.2 3.8 1.8 49 4.5 NW 35 54 19 29 1003.0 1003.2 0.0
29/08:35pm 12.5 3.8 1.8 48 4.7 NW 37 57 20 31 1003.0 1003.2 0.0
29/08:33pm 12.6 2.6 1.9 48 4.7 WNW 44 57 24 31 1002.8 1003.0 0.0
29/08:32pm 12.5 4.1 1.8 48 4.7 NNW 35 57 19 31 1003.0 1003.2 0.0
29/08:30pm 12.5 3.8 1.8 48 4.7 N 37 52 20 28 1003.0 1003.2 0.0
29/08:06pm 13.2 6.2 2.1 47 4.9 NW 28 46 15 25 1003.0 1003.2 0.0
29/08:00pm 13.3 5.9 1.9 46 5.0 NW 30 46 16 25 1003.1 1003.3 0.0
29/07:37pm 13.5 5.5 1.8 45 5.1 NW 33 54 18 29 1002.9 1003.1 0.0
29/07:30pm 13.6 6.2 1.9 45 5.2 NW 30 48 16 26 1003.0 1003.2 0.0
29/07:17pm 13.7 6.7 2.0 45 5.2 NW 28 48 15 26 1003.0 1003.2 0.0
29/07:00pm 13.8 9.0 2.4 46 5.1 NW 17 26 9 14 1002.8 1003.0 0.0
29/06:30pm 14.5 6.6 2.4 44 5.4 NW 33 52 18 28 1002.6 1002.8 0.0
29/06:23pm 14.5 6.8 2.1 43 5.5 NW 32 50 17 27 1002.5 1002.7 0.0
29/06:00pm 14.7 6.0 1.9 42 5.7 NW 37 54 20 29 1002.1 1002.3 0.0
29/05:40pm 14.8 7.0 1.7 41 5.8 NW 32 50 17 27 1002.3 1002.5 0.0
29/05:30pm 14.6 6.8 1.5 41 5.8 NW 32 50 17 27 1002.2 1002.4 0.0
29/05:28pm 14.6 7.1 1.5 41 5.8 NW 30 50 16 27 1002.2 1002.4 0.0
29/05:00pm 14.6 8.3 1.5 41 5.8 NNW 24 41 13 22 1002.3 1002.5 0.0
29/04:30pm 14.8 7.4 1.7 41 5.8 NNW 30 50 16 27 1002.4 1002.6 0.0

Latest Capital City Observations: Canberra | Sydney | Melbourne | Brisbane | Adelaide | Perth | Hobart | Darwin

Other Formats:

Comma delimited format used in spreadsheet applications
http://www.bom.gov.au/fwo/IDT60901/IDT60901.95986.axf

JavaScript Object Notation format (JSON) in row-major order
http://www.bom.gov.au/fwo/IDT60901/IDT60901.95986.json